createdAt,value
2023-01-25T00:01:22.795Z,8.50
2023-01-25T00:03:49.816Z,8.50
2023-01-25T00:06:17.149Z,8.50
2023-01-25T00:08:44.374Z,8.50
2023-01-25T00:11:11.335Z,8.40
2023-01-25T00:13:38.451Z,8.40
2023-01-25T00:16:05.804Z,8.40
2023-01-25T00:18:32.771Z,8.40
2023-01-25T00:20:59.708Z,8.40
2023-01-25T00:23:26.644Z,8.40
2023-01-25T00:25:59.728Z,8.40
2023-01-25T00:28:26.962Z,8.30
2023-01-25T00:30:53.917Z,8.30
2023-01-25T00:33:36.695Z,8.30
2023-01-25T00:36:23.590Z,8.30
2023-01-25T00:38:54.254Z,8.40
2023-01-25T00:41:21.827Z,8.40
2023-01-25T00:44:02.429Z,8.40
2023-01-25T00:46:29.417Z,8.40
2023-01-25T00:48:56.418Z,8.40
2023-01-25T00:51:24.293Z,8.50
2023-01-25T00:53:51.510Z,8.60
2023-01-25T00:56:19.621Z,8.70
2023-01-25T00:58:49.211Z,8.70
2023-01-25T01:01:16.426Z,8.80
2023-01-25T01:03:43.420Z,8.80
2023-01-25T01:06:12.694Z,8.90
2023-01-25T01:08:41.115Z,8.90
2023-01-25T01:11:11.228Z,9.00
2023-01-25T01:13:39.543Z,9.00
2023-01-25T01:16:08.615Z,9.00
2023-01-25T01:18:38.487Z,9.00
2023-01-25T01:21:06.227Z,8.90
2023-01-25T01:23:33.248Z,9.00
2023-01-25T01:26:05.591Z,9.00
2023-01-25T01:28:34.335Z,9.00
2023-01-25T01:31:06.212Z,9.00
2023-01-25T01:33:35.239Z,9.00
2023-01-25T01:36:17.537Z,8.90
2023-01-25T01:38:45.195Z,9.00
2023-01-25T01:41:13.935Z,8.90
2023-01-25T01:43:41.009Z,8.90
2023-01-25T01:46:21.023Z,8.90
2023-01-25T01:49:11.802Z,8.80
2023-01-25T01:52:00.628Z,8.80
2023-01-25T01:54:44.404Z,8.80
2023-01-25T01:57:16.425Z,8.80
2023-01-25T02:00:12.084Z,8.70
2023-01-25T02:02:39.350Z,8.70
2023-01-25T02:05:10.110Z,8.70
2023-01-25T02:07:39.579Z,8.80
2023-01-25T02:10:10.713Z,8.90
2023-01-25T02:12:38.970Z,8.80
2023-01-25T02:15:07.063Z,8.90
2023-01-25T02:17:40.003Z,8.90
2023-01-25T02:20:10.526Z,8.90
2023-01-25T02:22:45.585Z,8.90
2023-01-25T02:25:14.487Z,9.00
2023-01-25T02:27:46.546Z,9.00
2023-01-25T02:30:13.810Z,9.00
2023-01-25T02:32:41.090Z,9.00
2023-01-25T02:35:09.291Z,9.00
2023-01-25T02:37:36.721Z,9.00
2023-01-25T02:40:05.909Z,8.90
2023-01-25T02:42:35.683Z,8.90
2023-01-25T02:45:04.427Z,8.80
2023-01-25T02:47:31.524Z,8.80
2023-01-25T02:49:58.676Z,8.80
2023-01-25T02:52:27.120Z,8.80
2023-01-25T02:54:54.108Z,8.90
2023-01-25T02:57:23.143Z,8.90
2023-01-25T02:59:50.250Z,9.00
2023-01-25T03:02:17.360Z,9.00
2023-01-25T03:04:44.404Z,9.10
2023-01-25T03:07:13.878Z,9.20
2023-01-25T03:09:40.992Z,9.20
2023-01-25T03:12:08.139Z,9.30
2023-01-25T03:14:36.509Z,9.30
2023-01-25T03:17:05.489Z,9.40
2023-01-25T03:19:32.445Z,9.50
2023-01-25T03:21:59.524Z,9.40
2023-01-25T03:24:26.673Z,9.40
2023-01-25T03:27:14.730Z,9.40
2023-01-25T03:29:43.478Z,9.40
2023-01-25T03:32:11.030Z,9.40
2023-01-25T03:34:38.199Z,9.30
2023-01-25T03:37:05.775Z,9.30
2023-01-25T03:39:32.835Z,9.40
2023-01-25T03:41:59.822Z,9.30
2023-01-25T03:44:27.283Z,9.30
2023-01-25T03:46:57.484Z,9.30
2023-01-25T03:49:24.773Z,9.30
2023-01-25T03:51:51.834Z,9.30
2023-01-25T03:54:22.130Z,9.30
2023-01-25T03:56:49.117Z,9.30
2023-01-25T03:59:16.112Z,9.30
2023-01-25T04:01:43.067Z,9.20
2023-01-25T04:04:10.314Z,9.20
2023-01-25T04:06:37.313Z,9.20
2023-01-25T04:09:04.882Z,9.30
2023-01-25T04:11:31.989Z,9.30
2023-01-25T04:13:59.037Z,9.30
2023-01-25T04:16:27.452Z,9.30
2023-01-25T04:18:54.504Z,9.30
2023-01-25T04:21:21.483Z,9.30
2023-01-25T04:23:48.538Z,9.40
2023-01-25T04:26:15.922Z,9.40
2023-01-25T04:28:42.966Z,9.50
2023-01-25T04:31:09.976Z,9.50
2023-01-25T04:33:37.036Z,9.60
2023-01-25T04:36:04.393Z,9.70
2023-01-25T04:38:31.572Z,9.70
2023-01-25T04:40:58.561Z,9.70
2023-01-25T04:43:26.411Z,9.60
2023-01-25T04:45:53.436Z,9.70
2023-01-25T04:48:20.469Z,9.60
2023-01-25T04:50:47.746Z,9.60
2023-01-25T04:53:14.764Z,9.60
2023-01-25T04:55:45.951Z,9.60
2023-01-25T04:58:12.958Z,9.60
2023-01-25T05:00:40.186Z,9.70
2023-01-25T05:03:07.144Z,9.80
2023-01-25T05:05:34.116Z,9.80
2023-01-25T05:08:01.217Z,9.90
2023-01-25T05:10:28.199Z,9.90
2023-01-25T05:12:55.245Z,10.00
2023-01-25T05:15:22.237Z,10.00
2023-01-25T05:17:49.253Z,9.90
2023-01-25T05:20:16.467Z,10.00
2023-01-25T05:22:43.436Z,10.00
2023-01-25T05:25:30.476Z,10.00
2023-01-25T05:27:57.488Z,9.90
2023-01-25T05:30:24.528Z,9.90
2023-01-25T05:32:51.516Z,10.00
2023-01-25T05:35:18.980Z,10.00
2023-01-25T05:37:48.892Z,9.90
2023-01-25T05:40:16.007Z,10.00
2023-01-25T05:42:43.202Z,9.90
2023-01-25T05:45:11.010Z,10.00
2023-01-25T05:47:38.815Z,10.00
2023-01-25T05:50:08.666Z,9.90
2023-01-25T05:52:36.309Z,9.90
2023-01-25T05:55:03.445Z,9.90
2023-01-25T05:57:30.767Z,9.90
2023-01-25T05:59:59.214Z,9.80
2023-01-25T06:02:26.476Z,9.80
2023-01-25T06:04:53.558Z,9.70
2023-01-25T06:07:21.049Z,9.70
2023-01-25T06:09:49.216Z,9.60
2023-01-25T06:12:16.769Z,9.50
2023-01-25T06:14:43.837Z,9.40
2023-01-25T06:17:11.359Z,9.30
2023-01-25T06:19:38.477Z,9.20
2023-01-25T06:22:05.717Z,9.10
2023-01-25T06:24:32.914Z,9.00
2023-01-25T06:26:59.919Z,9.00
2023-01-25T06:29:26.941Z,8.90
2023-01-25T06:31:55.307Z,8.90
2023-01-25T06:34:22.850Z,8.90
2023-01-25T06:36:49.780Z,8.80
2023-01-25T06:39:16.930Z,8.70
2023-01-25T06:41:43.833Z,8.70
2023-01-25T06:44:10.855Z,8.70
2023-01-25T06:46:37.973Z,8.60
2023-01-25T06:49:04.958Z,8.60
2023-01-25T06:51:32.008Z,8.50
2023-01-25T06:54:04.514Z,8.50
2023-01-25T06:56:33.010Z,8.40
2023-01-25T06:59:00.004Z,8.30
2023-01-25T07:01:27.713Z,8.30
2023-01-25T07:03:57.244Z,8.30
2023-01-25T07:06:25.235Z,8.20
2023-01-25T07:08:52.325Z,8.20
2023-01-25T07:11:19.562Z,8.10
2023-01-25T07:13:48.021Z,8.00
2023-01-25T07:16:18.476Z,8.10
2023-01-25T07:18:46.102Z,8.00
2023-01-25T07:21:14.604Z,8.10
2023-01-25T07:23:42.123Z,8.10
2023-01-25T07:26:23.760Z,8.00
2023-01-25T07:28:51.674Z,7.90
2023-01-25T07:31:20.440Z,7.90
2023-01-25T07:33:54.512Z,7.80
2023-01-25T07:36:22.642Z,7.80
2023-01-25T07:38:52.596Z,7.90
2023-01-25T07:41:19.709Z,7.80
2023-01-25T07:43:46.696Z,7.90
2023-01-25T07:46:14.390Z,7.80
2023-01-25T07:48:46.223Z,7.90
2023-01-25T07:51:22.936Z,7.90
2023-01-25T07:53:59.155Z,7.90
2023-01-25T07:56:31.884Z,8.00
2023-01-25T07:59:00.361Z,8.00
2023-01-25T08:01:28.622Z,8.10
2023-01-25T08:03:56.633Z,8.30
2023-01-25T08:06:27.664Z,8.40
2023-01-25T08:08:55.413Z,8.60
2023-01-25T08:11:24.906Z,8.80
2023-01-25T08:13:52.273Z,9.10
2023-01-25T08:16:22.380Z,9.30
2023-01-25T08:18:51.109Z,9.40
2023-01-25T08:21:18.520Z,9.40
2023-01-25T08:23:46.127Z,9.50
2023-01-25T08:26:15.525Z,9.50
2023-01-25T08:28:42.745Z,9.40
2023-01-25T08:31:12.571Z,9.40
2023-01-25T08:33:40.391Z,9.30
2023-01-25T08:36:10.476Z,9.20
2023-01-25T08:38:38.367Z,9.20
2023-01-25T08:41:10.000Z,9.20
2023-01-25T08:43:37.667Z,9.10
2023-01-25T08:46:05.474Z,9.10
2023-01-25T08:48:32.789Z,9.10
2023-01-25T08:51:00.555Z,8.90
2023-01-25T08:53:32.154Z,8.80
2023-01-25T08:56:10.452Z,8.70
2023-01-25T08:58:39.723Z,8.80
2023-01-25T09:01:08.897Z,8.70
2023-01-25T09:03:37.958Z,8.70
2023-01-25T09:06:05.160Z,8.70
2023-01-25T09:08:32.735Z,8.70
2023-01-25T09:11:04.638Z,8.80
2023-01-25T09:13:31.628Z,8.80
2023-01-25T09:16:03.176Z,8.90
2023-01-25T09:18:31.045Z,8.90
2023-01-25T09:20:58.165Z,9.00
2023-01-25T09:23:25.416Z,9.00
2023-01-25T09:25:59.444Z,9.00
2023-01-25T09:28:30.278Z,8.90
2023-01-25T09:31:18.914Z,8.80
2023-01-25T09:33:46.268Z,8.80
2023-01-25T09:36:14.854Z,8.80
2023-01-25T09:38:42.465Z,8.90
2023-01-25T09:41:34.614Z,9.10
2023-01-25T09:44:20.366Z,9.20
2023-01-25T09:47:19.771Z,9.20
2023-01-25T09:49:49.510Z,9.20
2023-01-25T09:52:38.675Z,9.20
2023-01-25T09:55:14.772Z,9.10
2023-01-25T09:57:44.024Z,9.10
2023-01-25T10:00:22.722Z,9.10
2023-01-25T10:03:24.132Z,9.10
2023-01-25T10:05:54.554Z,9.10
2023-01-25T10:08:38.376Z,9.20
2023-01-25T10:11:26.508Z,9.20
2023-01-25T10:13:56.263Z,9.30
2023-01-25T10:16:27.434Z,9.30
2023-01-25T10:19:10.560Z,9.30
2023-01-25T10:21:41.845Z,9.40
2023-01-25T10:24:54.932Z,9.40
2023-01-25T10:27:43.571Z,9.30
2023-01-25T10:30:30.955Z,9.30
2023-01-25T10:33:07.519Z,9.30
2023-01-25T10:35:45.765Z,9.20
2023-01-25T10:38:35.385Z,9.20
2023-01-25T10:41:08.461Z,9.10
2023-01-25T10:43:35.440Z,9.00
2023-01-25T10:46:02.995Z,8.90
2023-01-25T10:48:36.535Z,8.90
2023-01-25T10:51:03.668Z,8.90
2023-01-25T10:53:44.312Z,8.80
2023-01-25T10:56:11.367Z,8.70
2023-01-25T10:58:45.189Z,8.60
2023-01-25T11:01:33.224Z,8.60
2023-01-25T11:26:18.604Z,8.80
2023-01-25T11:28:49.769Z,8.90
2023-01-25T11:31:23.142Z,9.10
2023-01-25T11:33:50.421Z,9.90
2023-01-25T11:36:26.856Z,10.40
2023-01-25T11:39:20.169Z,10.90
2023-01-25T11:42:03.607Z,11.20
2023-01-25T11:44:58.497Z,11.50
2023-01-25T11:47:34.818Z,11.50
2023-01-25T11:50:28.493Z,11.20
2023-01-25T11:53:29.422Z,10.90
2023-01-25T11:56:01.668Z,10.80
2023-01-25T11:58:46.450Z,10.90
2023-01-25T12:01:50.750Z,10.80
2023-01-25T12:04:41.966Z,10.80
2023-01-25T12:08:02.743Z,10.70
2023-01-25T12:11:00.681Z,10.70
2023-01-25T12:13:59.511Z,10.60
2023-01-25T12:16:29.288Z,10.70
2023-01-25T12:19:14.870Z,10.80
2023-01-25T12:22:20.754Z,10.90
2023-01-25T12:25:05.589Z,10.80
2023-01-25T12:28:06.651Z,10.60
2023-01-25T12:30:43.251Z,10.70
2023-01-25T12:33:18.451Z,10.50
2023-01-25T12:35:53.180Z,10.40
2023-01-25T12:38:43.364Z,10.20
2023-01-25T12:41:45.014Z,10.00
2023-01-25T12:44:32.178Z,9.90
2023-01-25T12:47:05.412Z,9.90
2023-01-25T12:49:49.516Z,9.70
2023-01-25T12:52:34.564Z,9.50
2023-01-25T12:55:04.584Z,9.40
2023-01-25T12:57:55.733Z,9.30
2023-01-25T13:00:45.848Z,9.30
2023-01-25T13:03:31.708Z,9.30
2023-01-25T13:05:58.663Z,9.30
2023-01-25T13:09:05.107Z,9.40
2023-01-25T13:11:41.576Z,9.60
2023-01-25T13:14:20.640Z,9.80
2023-01-25T13:17:09.090Z,9.90
2023-01-25T13:19:36.519Z,9.90
2023-01-25T13:22:04.464Z,9.80
2023-01-25T13:24:52.923Z,9.70
2023-01-25T13:27:26.105Z,9.50
2023-01-25T13:30:23.145Z,9.40
2023-01-25T13:32:50.056Z,9.30
2023-01-25T13:35:35.118Z,9.20
2023-01-25T13:38:29.327Z,9.20
2023-01-25T13:41:10.852Z,9.10
2023-01-25T13:43:40.825Z,9.10
2023-01-25T13:46:11.337Z,9.10
2023-01-25T13:48:47.638Z,9.10
2023-01-25T13:51:18.213Z,9.10
2023-01-25T13:53:56.235Z,9.10
2023-01-25T13:56:27.473Z,9.20
2023-01-25T13:58:54.471Z,9.20
2023-01-25T14:01:23.855Z,9.20
2023-01-25T14:03:55.310Z,9.20
2023-01-25T14:06:33.422Z,9.10
2023-01-25T14:09:07.877Z,9.10
2023-01-25T14:11:39.954Z,9.10
2023-01-25T14:14:33.569Z,9.10
2023-01-25T14:17:09.861Z,9.10
2023-01-25T14:19:43.066Z,9.10
2023-01-25T14:22:27.064Z,9.10
2023-01-25T14:25:18.455Z,9.00
2023-01-25T14:27:51.236Z,9.10
2023-01-25T14:30:22.244Z,9.00
2023-01-25T14:32:55.057Z,9.00
2023-01-25T14:35:43.613Z,9.00
2023-01-25T14:38:29.878Z,8.90
2023-01-25T14:41:12.562Z,9.00
2023-01-25T14:43:43.347Z,8.90
2023-01-25T14:46:30.864Z,8.90
2023-01-25T14:49:26.416Z,9.00
2023-01-25T14:52:27.559Z,8.90
2023-01-25T14:54:58.335Z,8.90
2023-01-25T14:57:31.220Z,8.90
2023-01-25T14:59:59.421Z,8.80
2023-01-25T15:02:44.345Z,8.80
2023-01-25T15:05:29.199Z,8.90
2023-01-25T15:08:08.361Z,8.90
2023-01-25T15:10:37.195Z,8.80
2023-01-25T15:13:21.950Z,8.70
2023-01-25T15:16:03.582Z,8.70
2023-01-25T15:18:47.975Z,8.70
2023-01-25T15:21:17.408Z,8.60
2023-01-25T15:23:49.248Z,8.60
2023-01-25T15:26:42.515Z,8.60
2023-01-25T15:29:21.035Z,8.50
2023-01-25T15:31:49.944Z,8.40
2023-01-25T15:34:22.201Z,8.40
2023-01-25T15:36:49.210Z,8.40
2023-01-25T15:39:20.721Z,8.40
2023-01-25T15:41:48.926Z,8.40
2023-01-25T15:44:17.518Z,8.30
2023-01-25T15:46:48.695Z,8.30
2023-01-25T15:49:25.252Z,8.30
2023-01-25T15:51:52.523Z,8.20
2023-01-25T15:54:20.292Z,8.20
2023-01-25T15:56:54.972Z,8.20
2023-01-25T15:59:22.322Z,8.10
2023-01-25T16:01:49.295Z,8.10
2023-01-25T16:04:16.261Z,8.20
2023-01-25T16:06:50.149Z,8.10
2023-01-25T16:09:19.102Z,8.10
2023-01-25T16:11:48.569Z,8.00
2023-01-25T16:14:15.559Z,8.10
2023-01-25T16:16:49.399Z,8.00
2023-01-25T16:19:21.467Z,8.00
2023-01-25T16:21:48.584Z,8.00
2023-01-25T16:24:15.957Z,7.90
2023-01-25T16:26:51.820Z,8.00
2023-01-25T16:29:19.595Z,7.90
2023-01-25T16:31:46.702Z,7.90
2023-01-25T16:34:13.695Z,7.90
2023-01-25T16:36:40.785Z,7.90
2023-01-25T16:39:16.002Z,7.90
2023-01-25T16:41:42.946Z,7.90
2023-01-25T16:44:09.935Z,7.90
2023-01-25T16:46:37.148Z,7.80
2023-01-25T16:49:06.891Z,7.80
2023-01-25T16:51:34.195Z,7.80
2023-01-25T16:54:01.131Z,7.70
2023-01-25T16:56:33.390Z,7.70
2023-01-25T16:59:05.946Z,7.70
2023-01-25T17:01:33.529Z,7.70
2023-01-25T17:04:00.594Z,7.60
2023-01-25T17:06:30.096Z,7.60
2023-01-25T17:09:02.222Z,7.60
2023-01-25T17:11:32.019Z,7.60
2023-01-25T17:14:01.010Z,7.50
2023-01-25T17:16:29.980Z,7.50
2023-01-25T17:19:06.079Z,7.40
2023-01-25T17:21:33.462Z,7.40
2023-01-25T17:24:02.335Z,7.40
2023-01-25T17:26:30.886Z,7.40
2023-01-25T17:29:01.808Z,7.40
2023-01-25T17:31:32.146Z,7.40
2023-01-25T17:34:02.105Z,7.30
2023-01-25T17:36:29.380Z,7.20
2023-01-25T17:38:56.670Z,7.20
2023-01-25T17:41:23.601Z,7.20
2023-01-25T17:43:52.775Z,7.20
2023-01-25T17:46:26.147Z,7.20
2023-01-25T17:48:53.744Z,7.20
2023-01-25T17:51:23.437Z,7.30
2023-01-25T17:53:52.043Z,7.30
2023-01-25T17:56:19.325Z,7.30
2023-01-25T17:58:46.848Z,7.30
2023-01-25T18:01:23.071Z,7.30
2023-01-25T18:03:52.216Z,7.20
2023-01-25T18:06:21.890Z,7.20
2023-01-25T18:08:50.992Z,7.20
2023-01-25T18:11:22.628Z,7.20
2023-01-25T18:13:51.735Z,7.20
2023-01-25T18:16:21.615Z,7.30
2023-01-25T18:18:50.679Z,7.20
2023-01-25T18:21:25.265Z,7.20
2023-01-25T18:23:56.751Z,7.20
2023-01-25T18:26:28.526Z,7.20
2023-01-25T18:28:59.897Z,7.20
2023-01-25T18:31:27.127Z,7.10
2023-01-25T18:33:54.062Z,7.10
2023-01-25T18:36:21.143Z,7.10
2023-01-25T18:38:48.144Z,7.00
2023-01-25T18:41:15.256Z,7.00
2023-01-25T18:43:42.336Z,7.00
2023-01-25T18:46:09.417Z,7.00
2023-01-25T18:48:36.841Z,7.00
2023-01-25T18:51:09.771Z,7.00
2023-01-25T18:53:39.354Z,7.00
2023-01-25T18:56:10.307Z,7.00
2023-01-25T18:58:38.119Z,6.90
2023-01-25T19:01:13.886Z,7.00
2023-01-25T19:03:42.005Z,6.90
2023-01-25T19:06:09.941Z,6.90
2023-01-25T19:08:41.326Z,6.80
2023-01-25T19:11:11.836Z,6.80
2023-01-25T19:13:39.848Z,6.80
2023-01-25T19:16:12.886Z,6.80
2023-01-25T19:18:45.956Z,6.80
2023-01-25T19:21:18.127Z,6.80
2023-01-25T19:23:45.437Z,6.90
2023-01-25T19:26:14.914Z,6.90
2023-01-25T19:28:42.640Z,6.90
2023-01-25T19:31:21.373Z,7.00
2023-01-25T19:33:53.802Z,7.00
2023-01-25T19:36:21.017Z,6.90
2023-01-25T19:38:49.142Z,7.00
2023-01-25T19:41:18.652Z,7.00
2023-01-25T19:43:45.854Z,7.00
2023-01-25T19:46:16.859Z,7.00
2023-01-25T19:48:45.020Z,7.10
2023-01-25T19:51:18.658Z,7.20
2023-01-25T19:53:52.862Z,7.10
2023-01-25T19:56:19.863Z,7.10
2023-01-25T19:58:48.530Z,7.10
2023-01-25T20:01:17.581Z,7.10
2023-01-25T20:03:45.381Z,7.10
2023-01-25T20:06:13.384Z,7.00
2023-01-25T20:08:42.642Z,7.00
2023-01-25T20:11:12.586Z,6.90
2023-01-25T20:13:40.457Z,6.90
2023-01-25T20:16:08.408Z,6.90
2023-01-25T20:18:36.055Z,6.80
2023-01-25T20:21:06.326Z,6.90
2023-01-25T20:23:35.442Z,6.80
2023-01-25T20:26:05.019Z,6.80
2023-01-25T20:28:37.362Z,6.80
2023-01-25T20:31:04.909Z,6.80
2023-01-25T20:33:32.197Z,6.80
2023-01-25T20:36:03.793Z,6.80
2023-01-25T20:38:35.671Z,6.80
2023-01-25T20:41:07.589Z,6.90
2023-01-25T20:43:35.092Z,6.80
2023-01-25T20:46:02.812Z,6.90
2023-01-25T20:48:36.356Z,6.80
2023-01-25T20:51:05.186Z,6.80
2023-01-25T20:53:33.493Z,6.70
2023-01-25T20:56:00.492Z,6.60
2023-01-25T20:58:28.048Z,6.70
2023-01-25T21:00:56.088Z,6.60
2023-01-25T21:03:24.011Z,6.60
2023-01-25T21:05:59.178Z,6.60
2023-01-25T21:08:26.729Z,6.60
2023-01-25T21:10:58.978Z,6.60
2023-01-25T21:13:26.813Z,6.60
2023-01-25T21:16:15.424Z,6.60
2023-01-25T21:18:45.070Z,6.60
2023-01-25T21:21:16.133Z,6.60
2023-01-25T21:23:47.505Z,6.60
2023-01-25T21:26:18.007Z,6.60
2023-01-25T21:28:45.754Z,6.70
2023-01-25T21:31:16.519Z,6.70
2023-01-25T21:33:44.219Z,6.70
2023-01-25T21:36:15.609Z,6.70
2023-01-25T21:38:45.199Z,6.70
2023-01-25T21:41:15.283Z,6.80
2023-01-25T21:44:01.212Z,6.80
2023-01-25T21:46:29.070Z,6.90
2023-01-25T21:49:16.861Z,7.00
2023-01-25T21:51:49.789Z,7.00
2023-01-25T21:54:18.958Z,7.10
2023-01-25T21:56:47.437Z,7.10
2023-01-25T21:59:14.999Z,7.10
2023-01-25T22:01:43.211Z,7.10
2023-01-25T22:04:11.084Z,7.10
2023-01-25T22:06:38.651Z,7.00
2023-01-25T22:09:06.186Z,7.10
2023-01-25T22:11:33.651Z,7.10
2023-01-25T22:14:01.195Z,7.10
2023-01-25T22:16:29.463Z,7.10
2023-01-25T22:18:57.292Z,7.10
2023-01-25T22:21:31.213Z,7.20
2023-01-25T22:24:00.954Z,7.10
2023-01-25T22:26:55.530Z,7.20
2023-01-25T22:29:23.693Z,7.20
2023-01-25T22:31:50.756Z,7.10
2023-01-25T22:34:17.756Z,7.10
2023-01-25T22:36:44.732Z,7.10
2023-01-25T22:39:15.016Z,7.10
2023-01-25T22:41:42.344Z,7.10
2023-01-25T22:44:10.109Z,7.20
2023-01-25T22:46:37.209Z,7.20
2023-01-25T22:49:04.973Z,7.20
2023-01-25T22:51:32.363Z,7.20
2023-01-25T22:54:00.418Z,7.20
2023-01-25T22:56:31.970Z,7.20
2023-01-25T22:59:00.379Z,7.20
2023-01-25T23:01:32.385Z,7.20
2023-01-25T23:03:59.951Z,7.20
2023-01-25T23:06:29.496Z,7.30
2023-01-25T23:09:00.058Z,7.30
2023-01-25T23:11:37.354Z,7.30
2023-01-25T23:14:25.478Z,7.30
2023-01-25T23:16:52.597Z,7.30
2023-01-25T23:19:19.637Z,7.30
2023-01-25T23:21:46.600Z,7.20
2023-01-25T23:24:13.635Z,7.20
2023-01-25T23:26:46.695Z,7.20
2023-01-25T23:29:14.516Z,7.20
2023-01-25T23:31:41.680Z,7.10
2023-01-25T23:34:08.875Z,7.00
2023-01-25T23:36:42.457Z,7.00
2023-01-25T23:39:13.147Z,7.00
2023-01-25T23:41:40.386Z,6.90
2023-01-25T23:44:09.202Z,6.90
2023-01-25T23:46:36.570Z,6.80
2023-01-25T23:49:03.627Z,6.80
2023-01-25T23:51:30.601Z,6.90
2023-01-25T23:53:58.421Z,6.90
2023-01-25T23:56:25.445Z,6.80
2023-01-25T23:58:52.487Z,6.80
